Time;durP1;ratioP1;P1;durP2;ratioP2;P2;SDS_P1;SDS_P2;PMS_P1;PMS_P2;Temp;Humidity;BMP_temperature;BMP_pressure;BME280_temperature;BME280_humidity;BME280_pressure;Samples;Min_cycle;Max_cycle;Signal;HPM_P1;HPM_P2
2022/01/02 00:01:37;;;;;;;8.50;6.17;;;11.20;99.90;;;;;;637156;225;26605;-82
2022/01/02 00:04:05;;;;;;;11.10;6.67;;;11.20;99.90;;;;;;637403;224;27471;-82
2022/01/02 00:06:32;;;;;;;6.77;5.70;;;11.20;99.90;;;;;;637110;224;26582;-82
2022/01/02 00:09:02;;;;;;;9.00;5.20;;;11.10;99.90;;;;;;637525;225;26800;-81
2022/01/02 00:11:29;;;;;;;8.20;5.77;;;11.00;99.90;;;;;;637538;225;26539;-83
2022/01/02 00:13:56;;;;;;;8.53;5.60;;;11.00;99.90;;;;;;637615;224;27283;-81
2022/01/02 00:16:24;;;;;;;6.73;5.53;;;11.00;99.90;;;;;;637083;225;26573;-82
2022/01/02 00:19:03;;;;;;;13.07;6.70;;;11.00;99.90;;;;;;637624;221;26752;-82
2022/01/02 00:21:18;;;;;;;11.03;5.77;;;10.90;99.90;;;;;;636339;225;26583;-82
2022/01/02 00:23:57;;;;;;;9.13;5.30;;;10.70;99.90;;;;;;637129;224;26808;-81
2022/01/02 00:26:17;;;;;;;7.90;5.77;;;10.70;99.90;;;;;;636483;225;26590;-82
2022/01/02 00:28:43;;;;;;;8.57;6.50;;;10.60;99.90;;;;;;637029;225;26567;-82
2022/01/02 00:31:10;;;;;;;9.77;6.17;;;10.60;99.90;;;;;;636985;225;26561;-82
2022/01/02 00:33:38;;;;;;;7.83;5.93;;;10.60;99.90;;;;;;637204;224;26552;-82
2022/01/02 00:36:05;;;;;;;9.47;6.33;;;10.70;99.90;;;;;;637106;224;26930;-82
2022/01/02 00:38:32;;;;;;;7.57;5.87;;;10.70;99.90;;;;;;637151;225;26552;-82
2022/01/02 00:40:59;;;;;;;8.90;6.13;;;10.50;99.90;;;;;;638410;223;26882;-82
2022/01/02 00:43:26;;;;;;;11.57;5.93;;;10.40;99.90;;;;;;638511;223;26511;-82
2022/01/02 00:45:54;;;;;;;14.03;6.60;;;10.50;99.90;;;;;;637591;225;26825;-82
2022/01/02 00:48:22;;;;;;;8.40;5.50;;;10.30;99.90;;;;;;637918;222;26556;-82
2022/01/02 00:50:50;;;;;;;10.00;6.70;;;10.30;99.90;;;;;;637327;222;26885;-82
2022/01/02 00:53:18;;;;;;;9.80;6.50;;;10.50;99.90;;;;;;637614;225;26612;-81
2022/01/02 00:55:46;;;;;;;8.70;6.00;;;10.40;99.90;;;;;;637678;225;26607;-82
2022/01/02 00:58:13;;;;;;;7.97;6.10;;;10.40;99.90;;;;;;637600;224;26579;-82
2022/01/02 01:00:41;;;;;;;7.73;6.73;;;10.40;99.90;;;;;;637397;225;26564;-81
2022/01/02 01:03:08;;;;;;;10.37;6.73;;;10.50;99.90;;;;;;637019;225;26578;-81
2022/01/02 01:05:36;;;;;;;8.07;6.30;;;10.60;99.90;;;;;;637455;225;26509;-82
2022/01/02 01:08:04;;;;;;;10.87;7.27;;;10.60;99.90;;;;;;637428;225;26600;-81
2022/01/02 01:10:33;;;;;;;9.73;6.97;;;10.50;99.90;;;;;;637402;225;26600;-81
2022/01/02 01:13:01;;;;;;;13.20;6.67;;;10.60;99.90;;;;;;637381;225;27160;-81
2022/01/02 01:15:29;;;;;;;11.70;6.97;;;10.60;99.90;;;;;;637236;225;26596;-81
2022/01/02 01:17:57;;;;;;;8.83;6.57;;;10.60;99.90;;;;;;637018;225;26524;-81
2022/01/02 01:20:24;;;;;;;9.90;6.80;;;10.70;99.90;;;;;;636929;225;26607;-83
2022/01/02 01:22:52;;;;;;;12.53;7.03;;;10.70;99.90;;;;;;637015;225;26567;-81
2022/01/02 01:25:20;;;;;;;12.47;7.27;;;10.70;99.90;;;;;;637173;225;26571;-81
2022/01/02 01:27:48;;;;;;;9.60;7.93;;;10.60;99.90;;;;;;637169;225;26562;-82
2022/01/02 01:30:15;;;;;;;8.20;7.27;;;10.60;99.90;;;;;;637115;224;27282;-83
2022/01/02 01:32:43;;;;;;;9.93;7.07;;;10.70;99.90;;;;;;637077;224;26579;-81
2022/01/02 01:35:11;;;;;;;11.30;7.30;;;10.60;99.90;;;;;;637142;224;26608;-81
2022/01/02 01:37:39;;;;;;;8.07;6.50;;;10.80;99.90;;;;;;637152;225;26538;-82
2022/01/02 01:40:07;;;;;;;9.57;7.17;;;10.90;99.90;;;;;;637134;224;26629;-83
2022/01/02 01:42:38;;;;;;;10.33;7.20;;;10.90;99.90;;;;;;637200;224;26589;-81
2022/01/02 01:45:28;;;;;;;8.53;6.63;;;10.90;99.90;;;;;;636988;225;26598;-82
2022/01/02 01:47:30;;;;;;;10.50;7.03;;;11.00;99.90;;;;;;635512;224;26783;-82
2022/01/02 01:49:57;;;;;;;10.03;7.20;;;11.00;99.90;;;;;;637067;224;26686;-81
2022/01/02 01:52:24;;;;;;;9.83;7.00;;;11.00;99.90;;;;;;638315;223;27275;-82
2022/01/02 01:54:51;;;;;;;7.67;6.90;;;11.00;99.90;;;;;;638500;223;26531;-82
2022/01/02 01:57:19;;;;;;;9.73;6.60;;;10.90;99.90;;;;;;638128;223;27184;-82
2022/01/02 01:59:47;;;;;;;11.63;7.10;;;11.10;99.90;;;;;;638033;224;26592;-86
2022/01/02 02:02:15;;;;;;;7.23;6.50;;;11.00;99.90;;;;;;637782;224;26527;-81
2022/01/02 02:04:43;;;;;;;8.33;6.93;;;11.00;99.90;;;;;;637712;224;26797;-82
2022/01/02 02:07:11;;;;;;;10.37;6.47;;;11.00;99.90;;;;;;637675;224;26527;-81
2022/01/02 02:12:10;;;;;;;8.27;7.27;;;11.00;99.90;;;;;;637291;225;26592;-81
2022/01/02 02:14:38;;;;;;;8.60;6.53;;;10.70;99.90;;;;;;637343;224;26827;-81
2022/01/02 02:17:05;;;;;;;9.83;7.43;;;10.60;99.90;;;;;;637356;224;26585;-81
2022/01/02 02:19:32;;;;;;;7.87;6.50;;;10.40;99.90;;;;;;637257;224;26589;-81
2022/01/02 02:22:00;;;;;;;9.00;7.33;;;10.30;99.90;;;;;;637327;225;26611;-81
2022/01/02 02:24:28;;;;;;;11.20;7.37;;;10.20;99.90;;;;;;637239;225;26569;-81
2022/01/02 02:26:56;;;;;;;7.87;7.07;;;10.20;99.90;;;;;;637229;224;26569;-81
2022/01/02 02:29:23;;;;;;;10.30;6.80;;;10.20;99.90;;;;;;636908;224;26606;-81
2022/01/02 02:31:50;;;;;;;10.00;7.00;;;10.10;99.90;;;;;;636919;224;26567;-81
2022/01/02 02:34:18;;;;;;;7.43;6.40;;;10.00;99.90;;;;;;636549;224;26592;-81
2022/01/02 02:36:45;;;;;;;11.03;6.93;;;10.00;99.90;;;;;;637080;225;26600;-80
2022/01/02 02:39:12;;;;;;;7.07;6.33;;;10.00;99.90;;;;;;637108;221;26946;-81
2022/01/02 02:41:42;;;;;;;8.37;6.60;;;9.90;99.90;;;;;;637075;224;26524;-81
2022/01/02 02:44:18;;;;;;;10.77;7.17;;;9.80;99.90;;;;;;636910;224;26908;-81
2022/01/02 02:49:08;;;;;;;9.30;6.40;;;9.60;99.90;;;;;;637145;224;26585;-80
2022/01/02 02:54:23;;;;;;;9.10;6.27;;;9.80;99.90;;;;;;634725;224;26627;-76
2022/01/02 02:56:56;;;;;;;9.63;7.13;;;10.00;99.90;;;;;;637106;222;26564;-78
2022/01/02 02:59:22;;;;;;;9.63;7.10;;;10.00;99.90;;;;;;636974;225;26589;-76
2022/01/02 03:01:49;;;;;;;10.03;6.57;;;9.90;99.90;;;;;;636997;224;26767;-76
2022/01/02 03:04:17;;;;;;;6.80;5.87;;;9.90;99.90;;;;;;638442;223;26578;-76
2022/01/02 03:06:45;;;;;;;9.23;7.07;;;9.90;99.90;;;;;;638428;223;26570;-76
2022/01/02 03:09:12;;;;;;;9.13;6.50;;;9.90;99.90;;;;;;638063;223;26795;-76
2022/01/02 03:11:39;;;;;;;7.40;6.07;;;9.90;99.90;;;;;;638086;223;26568;-76
2022/01/02 03:14:06;;;;;;;8.90;6.47;;;9.90;99.90;;;;;;637674;224;26733;-76
2022/01/02 03:16:34;;;;;;;6.07;5.33;;;9.80;99.90;;;;;;637692;224;26535;-76
2022/01/02 03:19:02;;;;;;;10.90;6.37;;;10.00;99.90;;;;;;637632;221;26602;-76
2022/01/02 03:21:30;;;;;;;9.43;6.47;;;10.10;99.90;;;;;;637493;224;26579;-76
2022/01/02 03:23:57;;;;;;;7.60;6.50;;;10.10;99.90;;;;;;637398;224;26561;-77
2022/01/02 03:26:25;;;;;;;7.33;6.30;;;10.20;99.90;;;;;;637518;224;26584;-76
2022/01/02 03:28:52;;;;;;;9.40;5.93;;;10.30;99.90;;;;;;637456;219;27106;-76
2022/01/02 03:31:19;;;;;;;8.73;6.23;;;10.40;99.90;;;;;;637578;225;26555;-76
2022/01/02 03:33:46;;;;;;;8.73;6.37;;;10.50;99.90;;;;;;637364;224;26782;-76
2022/01/02 03:36:13;;;;;;;8.40;6.03;;;10.30;99.90;;;;;;637343;224;26567;-76
2022/01/02 03:38:41;;;;;;;8.17;6.13;;;10.00;99.90;;;;;;637267;225;26849;-77
2022/01/02 03:41:09;;;;;;;8.50;6.13;;;9.80;99.90;;;;;;637033;224;26577;-76
2022/01/02 03:43:36;;;;;;;9.30;6.33;;;9.90;99.90;;;;;;637165;225;26600;-76
2022/01/02 03:46:04;;;;;;;10.00;6.40;;;9.90;99.90;;;;;;637109;224;26829;-76
2022/01/02 03:48:31;;;;;;;7.50;5.60;;;9.90;99.90;;;;;;636992;224;26577;-76
2022/01/02 03:50:58;;;;;;;8.30;6.50;;;9.80;99.90;;;;;;637096;225;27098;-77
2022/01/02 03:53:25;;;;;;;6.50;5.90;;;9.90;99.90;;;;;;637015;224;26570;-77
2022/01/02 03:55:52;;;;;;;7.63;5.87;;;9.80;99.90;;;;;;636973;224;26561;-76
2022/01/02 03:58:20;;;;;;;11.63;6.23;;;10.30;99.90;;;;;;636992;224;26563;-77
2022/01/02 04:00:48;;;;;;;6.57;5.60;;;10.40;99.90;;;;;;636955;224;26601;-76
2022/01/02 04:03:16;;;;;;;6.77;5.67;;;10.40;99.90;;;;;;637029;224;26563;-76
2022/01/02 04:05:43;;;;;;;9.00;6.27;;;10.30;99.90;;;;;;637083;224;26598;-76
2022/01/02 04:08:10;;;;;;;8.03;6.60;;;10.30;99.90;;;;;;637058;224;26777;-76
2022/01/02 04:10:37;;;;;;;8.30;6.07;;;10.10;99.90;;;;;;637098;221;26594;-76
2022/01/02 04:13:06;;;;;;;7.43;5.67;;;9.90;99.90;;;;;;636954;219;26837;-76
2022/01/02 04:15:32;;;;;;;6.83;5.77;;;10.10;99.90;;;;;;638653;223;26585;-76
2022/01/02 04:17:59;;;;;;;6.37;5.83;;;10.20;99.90;;;;;;638972;223;26489;-78
2022/01/02 04:20:27;;;;;;;8.13;5.80;;;10.40;99.90;;;;;;638631;225;26572;-77
2022/01/02 04:22:55;;;;;;;7.37;5.93;;;10.40;99.90;;;;;;638564;224;26548;-77
2022/01/02 04:25:22;;;;;;;7.90;6.10;;;10.40;99.90;;;;;;638268;223;26994;-77
2022/01/02 04:27:50;;;;;;;10.43;6.80;;;10.20;99.90;;;;;;638266;224;26480;-77
2022/01/02 04:30:18;;;;;;;6.87;5.40;;;10.20;99.90;;;;;;638232;224;26514;-77
2022/01/02 04:32:48;;;;;;;9.23;6.20;;;10.10;99.90;;;;;;638108;224;26548;-77
2022/01/02 04:35:13;;;;;;;6.33;5.73;;;10.10;99.90;;;;;;637731;225;26549;-77
2022/01/02 04:37:40;;;;;;;6.87;5.93;;;10.00;99.90;;;;;;628274;225;26521;-77
2022/01/02 04:40:08;;;;;;;8.67;5.93;;;10.00;99.90;;;;;;637394;224;26878;-77
2022/01/02 04:42:35;;;;;;;6.27;5.63;;;10.00;99.90;;;;;;637352;224;26590;-78
2022/01/02 04:45:02;;;;;;;8.23;5.63;;;9.90;99.90;;;;;;637317;225;26826;-77
2022/01/02 04:47:29;;;;;;;6.23;5.73;;;9.90;99.90;;;;;;637302;224;26584;-77
2022/01/02 04:49:56;;;;;;;13.90;6.37;;;9.90;99.90;;;;;;637242;225;26600;-77
2022/01/02 04:52:24;;;;;;;6.83;6.00;;;9.80;99.90;;;;;;636940;224;26577;-77
2022/01/02 04:54:52;;;;;;;6.93;6.23;;;9.80;99.90;;;;;;637005;224;26605;-77
2022/01/02 04:57:19;;;;;;;6.17;5.57;;;9.80;99.90;;;;;;636974;224;26793;-77
2022/01/02 04:59:47;;;;;;;6.67;5.80;;;9.80;99.90;;;;;;637015;225;26588;-77
2022/01/02 05:02:14;;;;;;;9.33;6.67;;;9.70;99.90;;;;;;637078;224;27322;-77
2022/01/02 05:04:42;;;;;;;12.17;6.03;;;9.60;99.90;;;;;;637097;224;26588;-77
2022/01/02 05:07:12;;;;;;;8.17;6.47;;;9.70;99.90;;;;;;637184;225;26555;-77
2022/01/02 05:09:37;;;;;;;7.63;6.23;;;9.70;99.90;;;;;;637064;225;26624;-77
2022/01/02 05:12:04;;;;;;;9.43;6.63;;;9.40;99.90;;;;;;637207;225;26575;-77
2022/01/02 05:14:32;;;;;;;7.80;6.90;;;9.30;99.90;;;;;;637167;226;26790;-77
2022/01/02 05:17:00;;;;;;;9.07;6.60;;;9.20;99.90;;;;;;637144;224;26561;-77
2022/01/02 05:19:27;;;;;;;7.20;6.60;;;9.30;99.90;;;;;;637130;225;26598;-77
2022/01/02 05:21:55;;;;;;;7.50;6.60;;;9.30;99.90;;;;;;637152;224;26793;-77
2022/01/02 05:24:22;;;;;;;9.63;7.20;;;9.30;99.90;;;;;;637042;224;26575;-77
2022/01/02 05:26:50;;;;;;;9.90;7.30;;;9.20;99.90;;;;;;638013;223;26805;-77
2022/01/02 05:29:17;;;;;;;10.00;6.63;;;9.40;99.90;;;;;;638338;224;26596;-77
2022/01/02 05:31:45;;;;;;;9.07;6.87;;;9.40;99.90;;;;;;638110;223;26595;-77
2022/01/02 05:34:12;;;;;;;8.67;6.67;;;9.40;99.90;;;;;;638038;225;26599;-76
2022/01/02 05:36:39;;;;;;;8.67;6.97;;;9.60;99.90;;;;;;637779;223;26563;-77
2022/01/02 05:39:07;;;;;;;9.53;7.03;;;9.70;99.90;;;;;;637675;224;26777;-77
2022/01/02 05:41:34;;;;;;;10.87;7.20;;;9.70;99.90;;;;;;637781;224;26571;-77
2022/01/02 05:44:01;;;;;;;10.27;6.57;;;9.70;99.90;;;;;;637688;225;26531;-76
2022/01/02 05:46:29;;;;;;;8.93;6.80;;;9.70;99.90;;;;;;637406;219;26588;-77
2022/01/02 05:48:56;;;;;;;12.90;7.27;;;9.70;99.90;;;;;;637308;224;26583;-77
2022/01/02 05:51:23;;;;;;;11.60;7.10;;;9.70;99.90;;;;;;637341;224;26560;-77
2022/01/02 05:53:51;;;;;;;10.07;7.33;;;9.50;99.90;;;;;;637374;224;26790;-77
2022/01/02 05:56:18;;;;;;;8.83;6.87;;;9.40;99.90;;;;;;637303;225;26567;-77
2022/01/02 05:58:45;;;;;;;11.00;7.17;;;9.20;99.90;;;;;;637201;225;27274;-76
2022/01/02 06:01:13;;;;;;;7.80;6.60;;;9.50;99.90;;;;;;637301;224;26566;-77
2022/01/02 06:03:41;;;;;;;10.43;7.70;;;9.40;99.90;;;;;;637088;219;26631;-77
2022/01/02 06:06:09;;;;;;;7.77;6.97;;;9.40;99.90;;;;;;637062;224;26587;-77
2022/01/02 06:08:36;;;;;;;9.43;7.00;;;9.40;99.90;;;;;;636986;224;26859;-77
2022/01/02 06:11:03;;;;;;;8.97;6.97;;;9.30;99.90;;;;;;637057;224;26585;-77
2022/01/02 06:13:30;;;;;;;10.97;7.33;;;9.30;99.90;;;;;;637103;224;27276;-77
2022/01/02 06:15:58;;;;;;;8.33;6.93;;;9.40;99.90;;;;;;637093;224;26799;-77
2022/01/02 06:18:26;;;;;;;10.30;7.23;;;9.40;99.90;;;;;;637069;225;26578;-77
2022/01/02 06:20:54;;;;;;;14.30;7.53;;;9.40;99.90;;;;;;637031;224;26626;-77
2022/01/02 06:23:21;;;;;;;9.10;7.33;;;9.40;99.90;;;;;;637033;224;26793;-77
2022/01/02 06:25:49;;;;;;;7.67;6.80;;;9.40;99.90;;;;;;637027;224;26548;-77
2022/01/02 06:28:16;;;;;;;8.83;6.90;;;9.40;99.90;;;;;;637006;224;26812;-76
2022/01/02 06:30:44;;;;;;;7.50;6.40;;;9.50;99.90;;;;;;637009;225;26608;-77
2022/01/02 06:33:12;;;;;;;8.43;7.20;;;9.60;99.90;;;;;;637047;224;26574;-77
2022/01/02 06:35:39;;;;;;;9.90;6.90;;;9.60;99.90;;;;;;637082;225;26569;-77
2022/01/02 06:38:10;;;;;;;9.30;7.03;;;9.50;99.90;;;;;;637854;223;26566;-76
2022/01/02 06:40:37;;;;;;;10.30;7.07;;;9.50;99.90;;;;;;638567;221;26826;-77
2022/01/02 06:43:04;;;;;;;9.90;7.03;;;9.60;99.90;;;;;;638163;223;26590;-77
2022/01/02 06:45:32;;;;;;;9.40;6.60;;;9.70;99.90;;;;;;638011;225;26790;-79
2022/01/02 06:48:00;;;;;;;9.20;6.93;;;10.00;99.90;;;;;;637730;225;26781;-78
2022/01/02 06:50:28;;;;;;;8.57;6.67;;;9.80;99.90;;;;;;637597;224;26570;-79
2022/01/02 06:52:55;;;;;;;7.57;6.07;;;9.70;99.90;;;;;;637730;225;26598;-79
2022/01/02 06:55:23;;;;;;;8.70;5.93;;;9.70;99.90;;;;;;637719;224;27255;-79
2022/01/02 06:57:50;;;;;;;7.43;6.50;;;9.80;99.90;;;;;;637471;224;26574;-79
2022/01/02 07:00:17;;;;;;;7.30;6.20;;;9.80;99.90;;;;;;637367;225;27038;-79
2022/01/02 07:02:45;;;;;;;9.73;6.90;;;9.90;99.90;;;;;;637450;225;26564;-79
2022/01/02 07:05:13;;;;;;;8.27;6.23;;;10.20;99.90;;;;;;637415;224;26601;-79
2022/01/02 07:07:41;;;;;;;10.73;6.50;;;10.20;99.90;;;;;;637476;224;26576;-79
2022/01/02 07:10:09;;;;;;;6.77;5.97;;;10.30;99.90;;;;;;637285;219;26601;-79
2022/01/02 07:12:36;;;;;;;8.63;6.07;;;10.10;99.90;;;;;;637197;225;26826;-79
2022/01/02 07:15:05;;;;;;;7.37;5.80;;;10.10;99.90;;;;;;637168;224;26571;-78
2022/01/02 07:17:33;;;;;;;8.20;5.47;;;10.10;99.90;;;;;;637099;224;26801;-79
2022/01/02 07:20:00;;;;;;;6.70;5.67;;;10.20;99.90;;;;;;637054;221;26598;-79
2022/01/02 07:22:27;;;;;;;7.80;5.67;;;10.40;99.90;;;;;;637074;224;27248;-79
2022/01/02 07:24:54;;;;;;;8.40;5.70;;;10.30;99.90;;;;;;637031;224;26775;-79
2022/01/02 07:27:21;;;;;;;7.23;5.50;;;10.40;99.90;;;;;;636995;224;26812;-79
2022/01/02 07:29:51;;;;;;;7.67;5.27;;;10.40;99.90;;;;;;636940;224;26800;-79
2022/01/02 07:32:17;;;;;;;6.07;5.47;;;10.30;99.90;;;;;;636924;225;26588;-79
2022/01/02 07:34:45;;;;;;;7.60;6.17;;;10.30;99.90;;;;;;636939;224;26807;-79
2022/01/02 07:37:13;;;;;;;6.33;5.73;;;10.30;99.90;;;;;;636872;219;26592;-79
2022/01/02 07:39:40;;;;;;;7.23;5.83;;;10.30;99.90;;;;;;636780;224;26591;-79
2022/01/02 07:42:07;;;;;;;8.50;5.50;;;10.40;99.90;;;;;;636834;226;26848;-79
2022/01/02 07:44:36;;;;;;;6.77;5.00;;;10.50;99.90;;;;;;636931;226;26560;-78
2022/01/02 07:47:02;;;;;;;6.43;5.33;;;10.40;99.90;;;;;;636890;225;26627;-80
2022/01/02 07:49:30;;;;;;;6.07;5.20;;;10.30;99.90;;;;;;637558;221;26830;-79
2022/01/02 07:51:57;;;;;;;8.17;5.37;;;10.40;99.90;;;;;;644099;218;26575;-78
2022/01/02 07:54:24;;;;;;;6.13;5.33;;;10.40;99.90;;;;;;644320;221;26746;-79
2022/01/02 07:56:52;;;;;;;6.70;5.53;;;10.70;99.90;;;;;;641456;222;26598;-79
2022/01/02 07:59:20;;;;;;;5.27;4.70;;;10.80;99.90;;;;;;639488;222;26600;-79
2022/01/02 08:01:47;;;;;;;6.70;5.07;;;10.80;99.90;;;;;;642926;222;26567;-79
2022/01/02 08:04:14;;;;;;;5.70;4.83;;;10.90;99.90;;;;;;640972;223;26726;-79
2022/01/02 08:06:41;;;;;;;9.40;5.27;;;11.00;99.90;;;;;;640938;224;26806;-78
2022/01/02 08:09:09;;;;;;;6.47;5.37;;;11.00;99.90;;;;;;640663;224;26575;-77
2022/01/02 08:11:36;;;;;;;7.27;5.33;;;10.80;99.90;;;;;;640532;224;26910;-78
2022/01/02 08:14:03;;;;;;;6.50;5.10;;;10.70;99.90;;;;;;640638;224;26562;-78
2022/01/02 08:16:30;;;;;;;5.43;4.93;;;10.70;99.90;;;;;;640616;223;26802;-78
2022/01/02 08:18:59;;;;;;;6.17;4.93;;;10.90;99.90;;;;;;640513;224;26576;-78
2022/01/02 08:21:26;;;;;;;6.03;4.77;;;10.90;99.90;;;;;;640625;224;26568;-78
2022/01/02 08:23:54;;;;;;;5.23;4.43;;;11.10;99.90;;;;;;640701;224;26590;-78
2022/01/02 08:26:21;;;;;;;6.77;4.43;;;11.10;99.90;;;;;;640501;224;26564;-78
2022/01/02 08:28:49;;;;;;;7.97;4.80;;;11.20;99.90;;;;;;640375;221;26570;-79
2022/01/02 08:31:16;;;;;;;6.40;4.60;;;11.10;99.90;;;;;;640354;224;26761;-78
2022/01/02 08:33:43;;;;;;;8.03;5.50;;;11.20;99.90;;;;;;640362;224;26581;-77
2022/01/02 08:36:10;;;;;;;6.10;4.80;;;11.10;99.90;;;;;;640343;224;26779;-78
2022/01/02 08:38:37;;;;;;;7.60;4.47;;;11.30;99.90;;;;;;640304;224;26523;-78
2022/01/02 08:41:08;;;;;;;5.63;4.27;;;11.40;99.90;;;;;;640991;222;26906;-77
2022/01/02 08:43:35;;;;;;;4.43;4.03;;;11.20;99.90;;;;;;638714;222;26598;-78
2022/01/02 08:46:04;;;;;;;6.57;4.33;;;11.40;99.90;;;;;;639427;222;26559;-77
2022/01/02 08:48:31;;;;;;;5.83;4.40;;;11.40;99.90;;;;;;641721;221;26801;-78
2022/01/02 08:50:58;;;;;;;6.33;3.97;;;11.50;99.90;;;;;;638462;219;26603;-77
2022/01/02 08:53:27;;;;;;;5.63;4.20;;;11.50;99.90;;;;;;641891;222;26828;-79
2022/01/02 08:55:53;;;;;;;5.40;4.00;;;11.60;99.90;;;;;;644424;221;26534;-78
2022/01/02 08:58:21;;;;;;;5.80;4.07;;;11.60;99.90;;;;;;644095;221;26566;-77
2022/01/02 09:00:48;;;;;;;5.50;3.97;;;11.50;99.90;;;;;;642331;222;26590;-78
2022/01/02 09:03:15;;;;;;;5.30;4.20;;;11.50;99.90;;;;;;641707;221;26786;-78
2022/01/02 09:05:43;;;;;;;4.43;3.70;;;11.60;99.90;;;;;;646979;221;26720;-78
2022/01/02 09:08:10;;;;;;;5.60;4.13;;;11.70;99.90;;;;;;642209;222;26545;-78
2022/01/02 09:10:37;;;;;;;4.80;4.17;;;11.70;99.90;;;;;;641286;221;26787;-78
2022/01/02 09:13:04;;;;;;;4.47;4.07;;;11.70;99.90;;;;;;642031;222;26525;-78
2022/01/02 09:15:31;;;;;;;6.20;4.03;;;11.80;99.90;;;;;;640079;224;26558;-78
2022/01/02 09:17:59;;;;;;;5.70;4.17;;;12.00;99.90;;;;;;640938;222;26533;-78
2022/01/02 09:20:27;;;;;;;6.53;4.47;;;12.00;99.90;;;;;;642896;221;26575;-78
2022/01/02 09:22:55;;;;;;;5.43;3.93;;;12.00;99.90;;;;;;645190;221;26794;-78
2022/01/02 09:25:22;;;;;;;7.00;4.73;;;12.10;99.90;;;;;;640147;222;26761;-78
2022/01/02 09:27:49;;;;;;;5.77;4.30;;;12.00;99.90;;;;;;642123;218;26732;-79
2022/01/02 09:30:16;;;;;;;4.50;3.80;;;11.90;99.90;;;;;;643551;221;26577;-79
2022/01/02 09:32:44;;;;;;;5.77;3.90;;;11.90;99.90;;;;;;639601;224;26783;-78
2022/01/02 09:35:11;;;;;;;9.63;4.23;;;12.00;99.90;;;;;;642945;221;26795;-78
2022/01/02 09:37:39;;;;;;;4.90;3.77;;;12.10;99.90;;;;;;645001;216;26598;-78
2022/01/02 09:40:07;;;;;;;7.07;4.17;;;12.20;99.90;;;;;;644131;221;26754;-78
2022/01/02 09:42:34;;;;;;;4.20;3.80;;;12.20;99.90;;;;;;642736;221;26760;-78
2022/01/02 09:45:02;;;;;;;5.03;3.70;;;12.40;99.90;;;;;;641644;221;26545;-78
2022/01/02 09:47:30;;;;;;;6.70;4.17;;;12.40;99.90;;;;;;640568;222;26536;-79
2022/01/02 09:49:58;;;;;;;7.10;4.07;;;12.40;99.90;;;;;;640891;222;26809;-78
2022/01/02 09:52:25;;;;;;;4.93;4.30;;;12.60;99.90;;;;;;640829;221;26543;-79
2022/01/02 09:54:52;;;;;;;4.60;3.60;;;12.90;99.90;;;;;;642235;221;26559;-79
2022/01/02 09:57:21;;;;;;;4.43;4.00;;;12.70;99.90;;;;;;639333;219;26529;-78
2022/01/02 09:59:48;;;;;;;6.70;4.20;;;12.70;99.90;;;;;;641552;221;26559;-78
2022/01/02 10:02:15;;;;;;;5.13;3.50;;;12.50;99.90;;;;;;641508;222;26789;-78
2022/01/02 10:04:43;;;;;;;5.67;3.93;;;12.40;99.90;;;;;;643025;221;26540;-78
2022/01/02 10:07:21;;;;;;;7.40;3.87;;;12.70;99.90;;;;;;644433;221;26997;-78
2022/01/02 10:09:49;;;;;;;5.60;3.83;;;12.70;99.90;;;;;;642436;222;26586;-78
2022/01/02 10:12:25;;;;;;;6.53;3.87;;;12.60;99.90;;;;;;642136;221;26770;-79
2022/01/02 10:15:13;;;;;;;6.17;4.27;;;12.60;99.90;;;;;;643887;221;26532;-79
2022/01/02 10:17:52;;;;;;;6.57;3.67;;;12.50;99.90;;;;;;641353;220;26740;-79
2022/01/02 10:20:19;;;;;;;6.03;4.30;;;12.70;99.90;;;;;;645416;221;26570;-78
2022/01/02 10:22:59;;;;;;;5.80;4.23;;;12.90;99.90;;;;;;642264;221;26535;-78
2022/01/02 10:25:45;;;;;;;4.97;4.30;;;12.80;99.90;;;;;;644407;221;26549;-77
2022/01/02 10:28:19;;;;;;;5.27;3.63;;;12.60;99.90;;;;;;641160;221;26524;-78
2022/01/02 10:30:47;;;;;;;5.43;4.10;;;12.40;99.90;;;;;;642636;221;26586;-78
2022/01/02 10:33:14;;;;;;;5.10;4.10;;;12.40;99.90;;;;;;642042;221;26846;-78
2022/01/02 10:35:42;;;;;;;5.43;4.00;;;12.40;99.90;;;;;;643319;221;26533;-78
2022/01/02 10:38:14;;;;;;;4.20;3.87;;;12.60;99.90;;;;;;643200;222;26802;-79
2022/01/02 10:40:42;;;;;;;6.13;3.83;;;12.60;99.90;;;;;;641676;222;26556;-78
2022/01/02 10:43:09;;;;;;;5.90;3.87;;;13.00;99.90;;;;;;640728;222;26953;-77
2022/01/02 10:45:37;;;;;;;8.27;4.27;;;13.10;99.90;;;;;;641125;222;26542;-78
2022/01/02 10:48:06;;;;;;;6.97;4.10;;;12.70;99.90;;;;;;641169;221;26568;-78
2022/01/02 10:50:33;;;;;;;5.73;4.13;;;12.30;99.90;;;;;;644379;221;26568;-78
2022/01/02 10:53:17;;;;;;;6.77;4.00;;;12.20;99.90;;;;;;641036;222;26539;-79
2022/01/02 10:55:45;;;;;;;5.60;4.40;;;12.30;99.90;;;;;;637707;222;26542;-79
2022/01/02 10:58:12;;;;;;;5.03;3.90;;;12.20;99.90;;;;;;640047;219;26483;-78
2022/01/02 11:00:39;;;;;;;6.20;3.97;;;12.40;99.90;;;;;;641612;221;26865;-79
2022/01/02 11:03:06;;;;;;;7.77;4.37;;;12.50;99.90;;;;;;641139;222;26555;-78
2022/01/02 11:05:33;;;;;;;6.60;4.30;;;12.40;99.90;;;;;;637566;226;26769;-83
2022/01/02 11:08:01;;;;;;;6.87;4.03;;;12.30;99.90;;;;;;637318;225;26532;-80
2022/01/02 11:10:28;;;;;;;6.10;4.50;;;12.30;99.90;;;;;;637087;225;26585;-83
2022/01/02 11:12:56;;;;;;;7.13;4.67;;;12.50;99.90;;;;;;637154;225;26589;-83
2022/01/02 11:15:24;;;;;;;9.67;6.37;;;12.50;99.90;;;;;;637222;219;26569;-79
2022/01/02 11:17:52;;;;;;;5.17;4.30;;;12.40;99.90;;;;;;637095;225;26664;-80
2022/01/02 11:20:21;;;;;;;5.60;4.37;;;12.10;99.90;;;;;;636967;225;26599;-80
2022/01/02 11:22:56;;;;;;;8.43;4.80;;;12.70;99.90;;;;;;638513;224;26592;-80
2022/01/02 11:25:21;;;;;;;8.43;5.27;;;12.70;99.90;;;;;;640903;222;26584;-79
2022/01/02 11:27:51;;;;;;;9.93;6.67;;;12.70;99.90;;;;;;641213;222;26858;-79
2022/01/02 11:30:42;;;;;;;14.43;6.73;;;12.60;99.90;;;;;;641286;222;26696;-81
2022/01/02 11:33:13;;;;;;;11.37;6.70;;;12.60;99.90;;;;;;641458;224;26557;-79
2022/01/02 11:35:43;;;;;;;11.87;6.07;;;12.80;99.90;;;;;;641215;224;26515;-78
2022/01/02 11:38:10;;;;;;;8.40;5.83;;;12.80;99.90;;;;;;641641;224;26501;-79
2022/01/02 11:41:04;;;;;;;10.07;6.47;;;12.60;99.90;;;;;;641649;223;26768;-79
2022/01/02 11:43:51;;;;;;;10.67;6.00;;;12.60;99.90;;;;;;641409;223;26512;-79
2022/01/02 11:46:24;;;;;;;11.27;7.37;;;12.70;99.90;;;;;;647395;221;26474;-79
2022/01/02 11:49:14;;;;;;;9.83;6.80;;;12.80;99.90;;;;;;637923;224;26755;-78
2022/01/02 11:52:01;;;;;;;8.27;5.57;;;12.80;99.90;;;;;;639888;221;26992;-79
2022/01/02 11:54:41;;;;;;;10.87;7.87;;;12.80;99.90;;;;;;646258;221;26557;-78
2022/01/02 11:57:42;;;;;;;9.80;6.03;;;12.90;99.90;;;;;;646969;222;26835;-79
2022/01/02 12:00:09;;;;;;;9.90;6.47;;;12.80;99.90;;;;;;646925;222;26825;-79
2022/01/02 12:02:37;;;;;;;10.90;7.90;;;12.90;99.90;;;;;;647116;222;26566;-79
2022/01/02 12:05:12;;;;;;;8.40;6.40;;;12.60;99.90;;;;;;646756;222;26865;-79
2022/01/02 12:07:52;;;;;;;8.37;5.70;;;12.40;99.90;;;;;;646618;222;26857;-79
2022/01/02 12:10:20;;;;;;;9.67;6.00;;;12.40;99.90;;;;;;647374;222;26570;-78
2022/01/02 12:13:13;;;;;;;9.67;5.77;;;12.20;99.90;;;;;;641904;221;26539;-79
2022/01/02 12:16:00;;;;;;;10.27;5.67;;;12.00;99.90;;;;;;641091;224;26488;-78
2022/01/02 12:18:27;;;;;;;10.20;6.97;;;12.10;99.90;;;;;;639361;224;26497;-79
2022/01/02 12:21:07;;;;;;;9.70;5.27;;;12.00;99.90;;;;;;640844;221;26536;-78
2022/01/02 12:23:53;;;;;;;8.10;5.87;;;11.90;99.90;;;;;;640581;224;26524;-79
2022/01/02 12:26:20;;;;;;;7.50;5.43;;;11.90;99.90;;;;;;640321;224;26508;-78
2022/01/02 12:28:48;;;;;;;7.37;4.97;;;11.90;99.90;;;;;;640386;224;26516;-78
2022/01/02 12:31:15;;;;;;;9.70;5.43;;;11.90;99.90;;;;;;640554;224;26844;-78
2022/01/02 12:33:42;;;;;;;5.97;4.97;;;11.70;99.90;;;;;;640553;224;26515;-78
2022/01/02 12:36:10;;;;;;;10.97;5.63;;;11.60;99.90;;;;;;641396;222;26835;-79
2022/01/02 12:38:49;;;;;;;8.87;5.87;;;11.70;99.90;;;;;;641729;224;26867;-79
2022/01/02 12:41:16;;;;;;;9.23;6.23;;;11.60;99.90;;;;;;641491;223;27053;-79
2022/01/02 12:43:49;;;;;;;8.90;5.60;;;11.50;99.90;;;;;;641406;223;26637;-79
2022/01/02 12:46:16;;;;;;;11.93;5.80;;;11.60;99.90;;;;;;641137;223;26811;-79
2022/01/02 12:48:44;;;;;;;9.97;6.50;;;11.50;99.90;;;;;;638849;224;26581;-79
2022/01/02 12:51:11;;;;;;;11.07;7.07;;;11.60;99.90;;;;;;641093;224;26513;-80
2022/01/02 12:53:39;;;;;;;10.90;6.80;;;11.70;99.90;;;;;;641109;224;26518;-79
2022/01/02 12:56:07;;;;;;;9.40;5.77;;;11.60;99.90;;;;;;640851;223;26565;-79
2022/01/02 12:58:36;;;;;;;7.30;5.53;;;11.60;99.90;;;;;;640869;224;26588;-79
2022/01/02 13:01:04;;;;;;;8.53;5.50;;;11.60;99.90;;;;;;640744;224;26629;-79
2022/01/02 13:03:31;;;;;;;10.23;5.73;;;11.60;99.90;;;;;;641018;224;26781;-80